sensor_id;sensor_type;location;lat;lon;timestamp;P1;durP1;ratioP1;P2;durP2;ratioP2
39242;SDS011;29823;47.404;8.566;2022-12-16T00:01:11;67.85;;;29.40;;
39242;SDS011;29823;47.404;8.566;2022-12-16T00:03:40;69.25;;;28.02;;
39242;SDS011;29823;47.404;8.566;2022-12-16T00:06:13;60.95;;;26.48;;
39242;SDS011;29823;47.404;8.566;2022-12-16T00:08:41;65.13;;;27.65;;
39242;SDS011;29823;47.404;8.566;2022-12-16T00:11:09;64.65;;;27.52;;
39242;SDS011;29823;47.404;8.566;2022-12-16T00:13:37;65.32;;;25.92;;
39242;SDS011;29823;47.404;8.566;2022-12-16T00:16:07;72.97;;;27.75;;
39242;SDS011;29823;47.404;8.566;2022-12-16T00:18:36;79.60;;;29.02;;
39242;SDS011;29823;47.404;8.566;2022-12-16T00:21:06;64.45;;;27.83;;
39242;SDS011;29823;47.404;8.566;2022-12-16T00:23:34;76.15;;;28.40;;
39242;SDS011;29823;47.404;8.566;2022-12-16T00:26:07;70.15;;;27.45;;
39242;SDS011;29823;47.404;8.566;2022-12-16T00:28:35;72.72;;;27.75;;
39242;SDS011;29823;47.404;8.566;2022-12-16T00:31:04;73.53;;;28.40;;
39242;SDS011;29823;47.404;8.566;2022-12-16T00:33:32;71.35;;;27.75;;
39242;SDS011;29823;47.404;8.566;2022-12-16T00:36:01;67.47;;;28.58;;
39242;SDS011;29823;47.404;8.566;2022-12-16T00:38:30;70.30;;;26.92;;
39242;SDS011;29823;47.404;8.566;2022-12-16T00:40:58;66.90;;;27.10;;
39242;SDS011;29823;47.404;8.566;2022-12-16T00:43:26;65.10;;;27.73;;
39242;SDS011;29823;47.404;8.566;2022-12-16T00:45:54;67.28;;;26.98;;
39242;SDS011;29823;47.404;8.566;2022-12-16T00:48:22;66.38;;;27.55;;
39242;SDS011;29823;47.404;8.566;2022-12-16T00:50:51;69.13;;;28.17;;
39242;SDS011;29823;47.404;8.566;2022-12-16T00:53:21;69.43;;;27.25;;
39242;SDS011;29823;47.404;8.566;2022-12-16T00:55:59;68.63;;;28.38;;
39242;SDS011;29823;47.404;8.566;2022-12-16T00:58:28;67.97;;;26.73;;
39242;SDS011;29823;47.404;8.566;2022-12-16T01:00:55;68.35;;;27.90;;
39242;SDS011;29823;47.404;8.566;2022-12-16T01:03:24;70.22;;;28.15;;
39242;SDS011;29823;47.404;8.566;2022-12-16T01:05:52;63.55;;;27.00;;
39242;SDS011;29823;47.404;8.566;2022-12-16T01:08:20;63.97;;;26.48;;
39242;SDS011;29823;47.404;8.566;2022-12-16T01:10:49;65.68;;;27.75;;
39242;SDS011;29823;47.404;8.566;2022-12-16T01:13:22;69.25;;;27.80;;
39242;SDS011;29823;47.404;8.566;2022-12-16T01:15:51;68.95;;;26.73;;
39242;SDS011;29823;47.404;8.566;2022-12-16T01:18:19;65.65;;;28.40;;
39242;SDS011;29823;47.404;8.566;2022-12-16T01:20:47;58.35;;;25.42;;
39242;SDS011;29823;47.404;8.566;2022-12-16T01:23:15;66.22;;;26.88;;
39242;SDS011;29823;47.404;8.566;2022-12-16T01:25:43;60.42;;;26.10;;
39242;SDS011;29823;47.404;8.566;2022-12-16T01:28:11;67.10;;;27.33;;
39242;SDS011;29823;47.404;8.566;2022-12-16T01:30:40;64.15;;;27.05;;
39242;SDS011;29823;47.404;8.566;2022-12-16T01:33:08;62.75;;;25.77;;
39242;SDS011;29823;47.404;8.566;2022-12-16T01:35:36;66.78;;;26.33;;
39242;SDS011;29823;47.404;8.566;2022-12-16T01:38:21;61.15;;;25.50;;
39242;SDS011;29823;47.404;8.566;2022-12-16T01:40:49;64.38;;;26.98;;
39242;SDS011;29823;47.404;8.566;2022-12-16T01:43:21;64.18;;;26.27;;
39242;SDS011;29823;47.404;8.566;2022-12-16T01:45:52;69.47;;;27.50;;
39242;SDS011;29823;47.404;8.566;2022-12-16T01:48:29;65.55;;;26.65;;
39242;SDS011;29823;47.404;8.566;2022-12-16T01:51:03;70.05;;;28.20;;
39242;SDS011;29823;47.404;8.566;2022-12-16T01:53:34;62.17;;;26.17;;
39242;SDS011;29823;47.404;8.566;2022-12-16T01:56:04;64.45;;;25.65;;
39242;SDS011;29823;47.404;8.566;2022-12-16T01:58:33;60.88;;;25.77;;
39242;SDS011;29823;47.404;8.566;2022-12-16T02:01:07;63.33;;;24.02;;
39242;SDS011;29823;47.404;8.566;2022-12-16T02:03:35;60.55;;;25.35;;
39242;SDS011;29823;47.404;8.566;2022-12-16T02:06:04;56.38;;;25.63;;
39242;SDS011;29823;47.404;8.566;2022-12-16T02:08:33;59.50;;;24.52;;
39242;SDS011;29823;47.404;8.566;2022-12-16T02:11:14;57.15;;;24.27;;
39242;SDS011;29823;47.404;8.566;2022-12-16T02:14:05;56.55;;;24.98;;
39242;SDS011;29823;47.404;8.566;2022-12-16T02:16:50;58.63;;;24.40;;
39242;SDS011;29823;47.404;8.566;2022-12-16T02:19:38;55.15;;;23.73;;
39242;SDS011;29823;47.404;8.566;2022-12-16T02:22:27;56.45;;;24.38;;
39242;SDS011;29823;47.404;8.566;2022-12-16T02:28:04;53.78;;;23.23;;
39242;SDS011;29823;47.404;8.566;2022-12-16T02:33:38;55.65;;;23.92;;
39242;SDS011;29823;47.404;8.566;2022-12-16T02:36:17;59.92;;;25.00;;
39242;SDS011;29823;47.404;8.566;2022-12-16T02:38:54;51.63;;;22.60;;
39242;SDS011;29823;47.404;8.566;2022-12-16T02:41:29;63.25;;;24.15;;
39242;SDS011;29823;47.404;8.566;2022-12-16T02:44:02;51.58;;;23.15;;
39242;SDS011;29823;47.404;8.566;2022-12-16T02:46:38;58.97;;;25.20;;
39242;SDS011;29823;47.404;8.566;2022-12-16T02:49:08;66.35;;;25.33;;
39242;SDS011;29823;47.404;8.566;2022-12-16T02:52:10;58.97;;;24.50;;
39242;SDS011;29823;47.404;8.566;2022-12-16T02:54:39;63.47;;;26.33;;
39242;SDS011;29823;47.404;8.566;2022-12-16T02:57:11;56.50;;;24.92;;
39242;SDS011;29823;47.404;8.566;2022-12-16T02:59:51;61.10;;;24.87;;
39242;SDS011;29823;47.404;8.566;2022-12-16T03:02:31;60.92;;;25.95;;
39242;SDS011;29823;47.404;8.566;2022-12-16T03:05:05;76.68;;;28.98;;
39242;SDS011;29823;47.404;8.566;2022-12-16T03:10:07;71.65;;;26.85;;
39242;SDS011;29823;47.404;8.566;2022-12-16T03:12:39;70.70;;;28.05;;
39242;SDS011;29823;47.404;8.566;2022-12-16T03:15:09;66.40;;;26.65;;
39242;SDS011;29823;47.404;8.566;2022-12-16T03:17:43;72.47;;;30.58;;
39242;SDS011;29823;47.404;8.566;2022-12-16T03:20:15;72.15;;;28.73;;
39242;SDS011;29823;47.404;8.566;2022-12-16T03:22:49;80.43;;;31.58;;
39242;SDS011;29823;47.404;8.566;2022-12-16T03:25:20;73.43;;;28.83;;
39242;SDS011;29823;47.404;8.566;2022-12-16T03:27:52;75.13;;;30.45;;
39242;SDS011;29823;47.404;8.566;2022-12-16T03:30:25;76.18;;;31.27;;
39242;SDS011;29823;47.404;8.566;2022-12-16T03:33:00;77.40;;;30.17;;
39242;SDS011;29823;47.404;8.566;2022-12-16T03:35:32;79.22;;;30.38;;
39242;SDS011;29823;47.404;8.566;2022-12-16T03:38:03;76.93;;;29.17;;
39242;SDS011;29823;47.404;8.566;2022-12-16T03:40:33;78.10;;;30.20;;
39242;SDS011;29823;47.404;8.566;2022-12-16T03:43:03;76.90;;;30.00;;
39242;SDS011;29823;47.404;8.566;2022-12-16T03:45:34;88.63;;;31.92;;
39242;SDS011;29823;47.404;8.566;2022-12-16T03:48:06;77.50;;;31.17;;
39242;SDS011;29823;47.404;8.566;2022-12-16T03:50:36;87.68;;;31.23;;
39242;SDS011;29823;47.404;8.566;2022-12-16T03:53:06;71.22;;;30.05;;
39242;SDS011;29823;47.404;8.566;2022-12-16T03:55:35;77.88;;;29.27;;
39242;SDS011;29823;47.404;8.566;2022-12-16T03:58:02;79.57;;;30.63;;
39242;SDS011;29823;47.404;8.566;2022-12-16T04:00:30;94.85;;;31.42;;
39242;SDS011;29823;47.404;8.566;2022-12-16T04:02:58;82.72;;;31.23;;
39242;SDS011;29823;47.404;8.566;2022-12-16T04:05:28;75.93;;;30.60;;
39242;SDS011;29823;47.404;8.566;2022-12-16T04:07:56;94.13;;;32.83;;
39242;SDS011;29823;47.404;8.566;2022-12-16T04:10:27;89.60;;;32.53;;
39242;SDS011;29823;47.404;8.566;2022-12-16T04:13:09;108.63;;;34.20;;
39242;SDS011;29823;47.404;8.566;2022-12-16T04:15:55;111.03;;;33.47;;
39242;SDS011;29823;47.404;8.566;2022-12-16T04:18:41;96.65;;;34.10;;
39242;SDS011;29823;47.404;8.566;2022-12-16T04:21:27;97.80;;;33.47;;
39242;SDS011;29823;47.404;8.566;2022-12-16T04:24:14;112.13;;;35.60;;
39242;SDS011;29823;47.404;8.566;2022-12-16T04:26:49;98.97;;;35.40;;
39242;SDS011;29823;47.404;8.566;2022-12-16T04:29:41;104.88;;;34.80;;
39242;SDS011;29823;47.404;8.566;2022-12-16T04:32:22;109.53;;;35.78;;
39242;SDS011;29823;47.404;8.566;2022-12-16T04:34:51;98.40;;;34.28;;
39242;SDS011;29823;47.404;8.566;2022-12-16T04:37:20;92.95;;;35.22;;
39242;SDS011;29823;47.404;8.566;2022-12-16T04:40:05;94.20;;;33.28;;
39242;SDS011;29823;47.404;8.566;2022-12-16T04:42:51;92.57;;;33.67;;
39242;SDS011;29823;47.404;8.566;2022-12-16T04:45:37;107.55;;;34.80;;
39242;SDS011;29823;47.404;8.566;2022-12-16T04:48:37;85.93;;;31.52;;
39242;SDS011;29823;47.404;8.566;2022-12-16T04:51:22;90.75;;;31.90;;
39242;SDS011;29823;47.404;8.566;2022-12-16T04:54:09;86.40;;;31.58;;
39242;SDS011;29823;47.404;8.566;2022-12-16T04:56:54;84.32;;;32.28;;
39242;SDS011;29823;47.404;8.566;2022-12-16T04:59:42;83.03;;;31.00;;
39242;SDS011;29823;47.404;8.566;2022-12-16T05:02:27;91.32;;;31.83;;
39242;SDS011;29823;47.404;8.566;2022-12-16T05:05:12;84.93;;;31.42;;
39242;SDS011;29823;47.404;8.566;2022-12-16T05:07:57;88.30;;;32.35;;
39242;SDS011;29823;47.404;8.566;2022-12-16T05:10:44;83.30;;;31.10;;
39242;SDS011;29823;47.404;8.566;2022-12-16T05:13:29;83.30;;;31.13;;
39242;SDS011;29823;47.404;8.566;2022-12-16T05:16:15;77.85;;;31.40;;
39242;SDS011;29823;47.404;8.566;2022-12-16T05:19:00;81.35;;;30.30;;
39242;SDS011;29823;47.404;8.566;2022-12-16T05:21:57;76.05;;;28.02;;
39242;SDS011;29823;47.404;8.566;2022-12-16T05:24:42;82.18;;;29.73;;
39242;SDS011;29823;47.404;8.566;2022-12-16T05:27:29;71.72;;;29.25;;
39242;SDS011;29823;47.404;8.566;2022-12-16T05:30:14;63.17;;;27.17;;
39242;SDS011;29823;47.404;8.566;2022-12-16T05:32:59;65.30;;;28.00;;
39242;SDS011;29823;47.404;8.566;2022-12-16T05:35:45;64.78;;;28.67;;
39242;SDS011;29823;47.404;8.566;2022-12-16T05:38:30;68.15;;;29.08;;
39242;SDS011;29823;47.404;8.566;2022-12-16T05:41:15;76.80;;;29.38;;
39242;SDS011;29823;47.404;8.566;2022-12-16T05:44:02;72.53;;;28.50;;
39242;SDS011;29823;47.404;8.566;2022-12-16T05:46:48;73.20;;;28.33;;
39242;SDS011;29823;47.404;8.566;2022-12-16T05:49:33;59.72;;;25.85;;
39242;SDS011;29823;47.404;8.566;2022-12-16T05:52:18;65.18;;;28.73;;
39242;SDS011;29823;47.404;8.566;2022-12-16T05:55:04;62.05;;;27.92;;
39242;SDS011;29823;47.404;8.566;2022-12-16T05:57:57;62.30;;;28.65;;
39242;SDS011;29823;47.404;8.566;2022-12-16T06:00:44;68.13;;;27.48;;
39242;SDS011;29823;47.404;8.566;2022-12-16T06:03:29;61.92;;;28.30;;
39242;SDS011;29823;47.404;8.566;2022-12-16T06:06:15;68.95;;;28.60;;
39242;SDS011;29823;47.404;8.566;2022-12-16T06:09:00;56.85;;;26.10;;
39242;SDS011;29823;47.404;8.566;2022-12-16T06:11:45;60.38;;;26.58;;
39242;SDS011;29823;47.404;8.566;2022-12-16T06:14:31;67.20;;;28.23;;
39242;SDS011;29823;47.404;8.566;2022-12-16T06:17:17;53.03;;;25.98;;
39242;SDS011;29823;47.404;8.566;2022-12-16T06:20:03;63.38;;;27.80;;
39242;SDS011;29823;47.404;8.566;2022-12-16T06:22:49;58.97;;;27.23;;
39242;SDS011;29823;47.404;8.566;2022-12-16T06:25:35;68.88;;;28.40;;
39242;SDS011;29823;47.404;8.566;2022-12-16T06:28:21;71.15;;;27.77;;
39242;SDS011;29823;47.404;8.566;2022-12-16T06:31:11;67.38;;;28.92;;
39242;SDS011;29823;47.404;8.566;2022-12-16T06:33:58;72.22;;;29.08;;
39242;SDS011;29823;47.404;8.566;2022-12-16T06:36:43;64.72;;;29.23;;
39242;SDS011;29823;47.404;8.566;2022-12-16T06:39:29;68.80;;;28.10;;
39242;SDS011;29823;47.404;8.566;2022-12-16T06:42:18;71.10;;;29.73;;
39242;SDS011;29823;47.404;8.566;2022-12-16T06:45:04;71.88;;;28.50;;
39242;SDS011;29823;47.404;8.566;2022-12-16T06:47:55;68.57;;;29.92;;
39242;SDS011;29823;47.404;8.566;2022-12-16T06:50:42;71.57;;;29.98;;
39242;SDS011;29823;47.404;8.566;2022-12-16T06:53:27;67.78;;;29.17;;
39242;SDS011;29823;47.404;8.566;2022-12-16T06:56:12;72.63;;;30.27;;
39242;SDS011;29823;47.404;8.566;2022-12-16T06:58:58;67.47;;;29.17;;
39242;SDS011;29823;47.404;8.566;2022-12-16T07:01:43;61.90;;;28.58;;
39242;SDS011;29823;47.404;8.566;2022-12-16T07:04:29;64.63;;;29.42;;
39242;SDS011;29823;47.404;8.566;2022-12-16T07:07:15;63.20;;;28.55;;
39242;SDS011;29823;47.404;8.566;2022-12-16T07:10:01;66.25;;;29.65;;
39242;SDS011;29823;47.404;8.566;2022-12-16T07:12:46;66.32;;;29.17;;
39242;SDS011;29823;47.404;8.566;2022-12-16T07:15:31;72.13;;;28.17;;
39242;SDS011;29823;47.404;8.566;2022-12-16T07:18:17;66.28;;;29.15;;
39242;SDS011;29823;47.404;8.566;2022-12-16T07:21:02;66.03;;;29.17;;
39242;SDS011;29823;47.404;8.566;2022-12-16T07:23:49;67.05;;;28.27;;
39242;SDS011;29823;47.404;8.566;2022-12-16T07:26:34;67.07;;;29.05;;
39242;SDS011;29823;47.404;8.566;2022-12-16T07:29:20;63.22;;;28.67;;
39242;SDS011;29823;47.404;8.566;2022-12-16T07:32:02;63.40;;;29.40;;
39242;SDS011;29823;47.404;8.566;2022-12-16T07:34:47;67.68;;;30.05;;
39242;SDS011;29823;47.404;8.566;2022-12-16T07:37:32;80.50;;;28.73;;
39242;SDS011;29823;47.404;8.566;2022-12-16T07:40:19;65.63;;;29.17;;
39242;SDS011;29823;47.404;8.566;2022-12-16T07:43:04;66.22;;;28.17;;
39242;SDS011;29823;47.404;8.566;2022-12-16T07:45:49;64.68;;;27.92;;
39242;SDS011;29823;47.404;8.566;2022-12-16T07:48:35;64.75;;;27.70;;
39242;SDS011;29823;47.404;8.566;2022-12-16T07:51:21;57.55;;;26.73;;
39242;SDS011;29823;47.404;8.566;2022-12-16T07:54:06;67.03;;;28.67;;
39242;SDS011;29823;47.404;8.566;2022-12-16T07:56:53;60.42;;;28.00;;
39242;SDS011;29823;47.404;8.566;2022-12-16T07:59:38;65.35;;;28.38;;
39242;SDS011;29823;47.404;8.566;2022-12-16T08:02:24;63.78;;;28.10;;
39242;SDS011;29823;47.404;8.566;2022-12-16T08:05:09;56.70;;;27.23;;
39242;SDS011;29823;47.404;8.566;2022-12-16T08:07:54;56.42;;;26.65;;
39242;SDS011;29823;47.404;8.566;2022-12-16T08:10:39;65.88;;;28.45;;
39242;SDS011;29823;47.404;8.566;2022-12-16T08:13:26;58.13;;;28.05;;
39242;SDS011;29823;47.404;8.566;2022-12-16T08:16:11;60.92;;;28.20;;
39242;SDS011;29823;47.404;8.566;2022-12-16T08:18:57;63.15;;;26.38;;
39242;SDS011;29823;47.404;8.566;2022-12-16T08:21:42;58.85;;;25.85;;
39242;SDS011;29823;47.404;8.566;2022-12-16T08:24:27;66.00;;;27.08;;
39242;SDS011;29823;47.404;8.566;2022-12-16T08:27:18;39.08;;;18.80;;
39242;SDS011;29823;47.404;8.566;2022-12-16T08:30:06;59.72;;;27.40;;
39242;SDS011;29823;47.404;8.566;2022-12-16T08:32:52;54.67;;;26.60;;
39242;SDS011;29823;47.404;8.566;2022-12-16T08:35:45;53.85;;;27.83;;
39242;SDS011;29823;47.404;8.566;2022-12-16T08:38:30;60.83;;;26.70;;
39242;SDS011;29823;47.404;8.566;2022-12-16T08:41:16;58.10;;;26.90;;
39242;SDS011;29823;47.404;8.566;2022-12-16T08:44:01;65.90;;;27.65;;
39242;SDS011;29823;47.404;8.566;2022-12-16T08:46:47;57.70;;;27.50;;
39242;SDS011;29823;47.404;8.566;2022-12-16T08:49:34;72.13;;;28.13;;
39242;SDS011;29823;47.404;8.566;2022-12-16T08:52:26;57.30;;;26.67;;
39242;SDS011;29823;47.404;8.566;2022-12-16T08:55:11;55.00;;;26.65;;
39242;SDS011;29823;47.404;8.566;2022-12-16T08:57:57;60.55;;;28.23;;
39242;SDS011;29823;47.404;8.566;2022-12-16T09:00:42;67.10;;;27.83;;
39242;SDS011;29823;47.404;8.566;2022-12-16T09:03:34;60.63;;;27.20;;
39242;SDS011;29823;47.404;8.566;2022-12-16T09:06:19;60.55;;;27.60;;
39242;SDS011;29823;47.404;8.566;2022-12-16T09:09:06;49.08;;;24.95;;
39242;SDS011;29823;47.404;8.566;2022-12-16T09:11:51;54.95;;;27.77;;
39242;SDS011;29823;47.404;8.566;2022-12-16T09:14:37;53.85;;;27.95;;
39242;SDS011;29823;47.404;8.566;2022-12-16T09:17:22;59.88;;;27.85;;
39242;SDS011;29823;47.404;8.566;2022-12-16T09:20:09;57.30;;;27.10;;
39242;SDS011;29823;47.404;8.566;2022-12-16T09:22:55;51.47;;;26.05;;
39242;SDS011;29823;47.404;8.566;2022-12-16T09:25:40;45.22;;;25.65;;
39242;SDS011;29823;47.404;8.566;2022-12-16T09:28:25;47.42;;;23.92;;
39242;SDS011;29823;47.404;8.566;2022-12-16T09:31:10;46.67;;;23.90;;
39242;SDS011;29823;47.404;8.566;2022-12-16T09:33:56;49.30;;;24.90;;
39242;SDS011;29823;47.404;8.566;2022-12-16T09:36:42;41.60;;;23.67;;
39242;SDS011;29823;47.404;8.566;2022-12-16T09:39:28;44.65;;;23.90;;
39242;SDS011;29823;47.404;8.566;2022-12-16T09:42:16;48.00;;;25.60;;
39242;SDS011;29823;47.404;8.566;2022-12-16T09:45:11;51.95;;;24.75;;
39242;SDS011;29823;47.404;8.566;2022-12-16T09:48:03;46.22;;;24.75;;
39242;SDS011;29823;47.404;8.566;2022-12-16T09:50:54;46.13;;;24.90;;
39242;SDS011;29823;47.404;8.566;2022-12-16T09:53:47;48.05;;;22.85;;
39242;SDS011;29823;47.404;8.566;2022-12-16T09:56:34;52.97;;;24.30;;
39242;SDS011;29823;47.404;8.566;2022-12-16T09:59:21;51.17;;;24.40;;
39242;SDS011;29823;47.404;8.566;2022-12-16T10:02:12;47.47;;;24.98;;
39242;SDS011;29823;47.404;8.566;2022-12-16T10:05:00;53.40;;;25.70;;
39242;SDS011;29823;47.404;8.566;2022-12-16T10:07:45;52.25;;;26.70;;
39242;SDS011;29823;47.404;8.566;2022-12-16T10:10:48;51.50;;;26.80;;
39242;SDS011;29823;47.404;8.566;2022-12-16T10:13:41;48.90;;;26.45;;
39242;SDS011;29823;47.404;8.566;2022-12-16T10:16:38;51.00;;;26.70;;
39242;SDS011;29823;47.404;8.566;2022-12-16T10:19:32;50.92;;;27.73;;
39242;SDS011;29823;47.404;8.566;2022-12-16T10:22:35;48.25;;;27.60;;
39242;SDS011;29823;47.404;8.566;2022-12-16T10:25:27;49.70;;;27.63;;
39242;SDS011;29823;47.404;8.566;2022-12-16T10:28:18;51.53;;;28.08;;
39242;SDS011;29823;47.404;8.566;2022-12-16T10:31:25;52.10;;;28.60;;
39242;SDS011;29823;47.404;8.566;2022-12-16T10:34:12;54.42;;;29.75;;
39242;SDS011;29823;47.404;8.566;2022-12-16T10:36:59;51.05;;;28.23;;
39242;SDS011;29823;47.404;8.566;2022-12-16T10:39:47;54.33;;;29.90;;
39242;SDS011;29823;47.404;8.566;2022-12-16T10:42:35;58.53;;;31.98;;
39242;SDS011;29823;47.404;8.566;2022-12-16T10:45:28;57.40;;;31.35;;
39242;SDS011;29823;47.404;8.566;2022-12-16T10:48:18;64.57;;;31.50;;
39242;SDS011;29823;47.404;8.566;2022-12-16T10:51:21;62.65;;;31.52;;
39242;SDS011;29823;47.404;8.566;2022-12-16T10:54:21;57.95;;;30.90;;
39242;SDS011;29823;47.404;8.566;2022-12-16T10:57:13;62.08;;;30.40;;
39242;SDS011;29823;47.404;8.566;2022-12-16T11:00:09;58.67;;;30.33;;
39242;SDS011;29823;47.404;8.566;2022-12-16T11:03:00;53.50;;;29.35;;
39242;SDS011;29823;47.404;8.566;2022-12-16T11:05:58;58.45;;;30.50;;
39242;SDS011;29823;47.404;8.566;2022-12-16T11:08:44;53.28;;;28.20;;
39242;SDS011;29823;47.404;8.566;2022-12-16T11:11:30;56.88;;;28.13;;
39242;SDS011;29823;47.404;8.566;2022-12-16T11:14:16;52.60;;;29.92;;
39242;SDS011;29823;47.404;8.566;2022-12-16T11:17:15;54.00;;;29.38;;
39242;SDS011;29823;47.404;8.566;2022-12-16T11:20:07;56.97;;;29.20;;
39242;SDS011;29823;47.404;8.566;2022-12-16T11:23:05;58.50;;;30.73;;
39242;SDS011;29823;47.404;8.566;2022-12-16T11:26:08;54.58;;;28.60;;
39242;SDS011;29823;47.404;8.566;2022-12-16T11:29:03;53.45;;;29.73;;
39242;SDS011;29823;47.404;8.566;2022-12-16T11:32:00;59.28;;;30.10;;
39242;SDS011;29823;47.404;8.566;2022-12-16T11:34:51;49.20;;;28.45;;
39242;SDS011;29823;47.404;8.566;2022-12-16T11:37:41;54.33;;;30.02;;
39242;SDS011;29823;47.404;8.566;2022-12-16T11:40:28;57.03;;;30.52;;
39242;SDS011;29823;47.404;8.566;2022-12-16T11:43:11;49.47;;;29.30;;
39242;SDS011;29823;47.404;8.566;2022-12-16T11:46:00;51.45;;;29.35;;
39242;SDS011;29823;47.404;8.566;2022-12-16T11:48:49;52.42;;;30.98;;
39242;SDS011;29823;47.404;8.566;2022-12-16T11:51:39;56.65;;;32.03;;
39242;SDS011;29823;47.404;8.566;2022-12-16T11:54:51;56.85;;;31.17;;
39242;SDS011;29823;47.404;8.566;2022-12-16T11:57:46;51.60;;;28.90;;
39242;SDS011;29823;47.404;8.566;2022-12-16T12:00:37;59.45;;;29.75;;
39242;SDS011;29823;47.404;8.566;2022-12-16T12:03:41;55.47;;;31.25;;
39242;SDS011;29823;47.404;8.566;2022-12-16T12:06:28;52.45;;;30.00;;
39242;SDS011;29823;47.404;8.566;2022-12-16T12:09:21;51.55;;;28.85;;
39242;SDS011;29823;47.404;8.566;2022-12-16T12:12:13;53.85;;;29.40;;
39242;SDS011;29823;47.404;8.566;2022-12-16T12:15:09;51.17;;;29.30;;
39242;SDS011;29823;47.404;8.566;2022-12-16T12:18:04;56.90;;;30.38;;
39242;SDS011;29823;47.404;8.566;2022-12-16T12:21:02;53.75;;;29.23;;
39242;SDS011;29823;47.404;8.566;2022-12-16T12:23:55;54.80;;;30.85;;
39242;SDS011;29823;47.404;8.566;2022-12-16T12:26:48;52.88;;;30.13;;
39242;SDS011;29823;47.404;8.566;2022-12-16T12:29:46;58.92;;;30.77;;
39242;SDS011;29823;47.404;8.566;2022-12-16T12:32:43;51.90;;;30.40;;
39242;SDS011;29823;47.404;8.566;2022-12-16T12:35:42;54.47;;;30.30;;
39242;SDS011;29823;47.404;8.566;2022-12-16T12:38:39;53.10;;;30.20;;
39242;SDS011;29823;47.404;8.566;2022-12-16T12:41:44;53.72;;;32.00;;
39242;SDS011;29823;47.404;8.566;2022-12-16T12:44:41;57.35;;;31.13;;
39242;SDS011;29823;47.404;8.566;2022-12-16T12:47:39;61.42;;;31.90;;
39242;SDS011;29823;47.404;8.566;2022-12-16T12:50:30;65.93;;;32.15;;
39242;SDS011;29823;47.404;8.566;2022-12-16T12:53:24;58.95;;;33.35;;
39242;SDS011;29823;47.404;8.566;2022-12-16T12:56:19;61.47;;;32.30;;
39242;SDS011;29823;47.404;8.566;2022-12-16T12:59:15;58.78;;;32.15;;
39242;SDS011;29823;47.404;8.566;2022-12-16T13:02:12;59.95;;;33.03;;
39242;SDS011;29823;47.404;8.566;2022-12-16T13:05:02;55.75;;;31.58;;
39242;SDS011;29823;47.404;8.566;2022-12-16T13:07:50;58.20;;;31.15;;
39242;SDS011;29823;47.404;8.566;2022-12-16T13:10:35;58.85;;;33.05;;
39242;SDS011;29823;47.404;8.566;2022-12-16T13:13:29;62.00;;;33.95;;
39242;SDS011;29823;47.404;8.566;2022-12-16T13:20:00;60.00;;;33.10;;
39242;SDS011;29823;47.404;8.566;2022-12-16T13:23:03;63.83;;;34.03;;
39242;SDS011;29823;47.404;8.566;2022-12-16T13:26:12;63.97;;;33.70;;
39242;SDS011;29823;47.404;8.566;2022-12-16T13:29:02;63.20;;;34.67;;
39242;SDS011;29823;47.404;8.566;2022-12-16T13:32:00;67.18;;;35.88;;
39242;SDS011;29823;47.404;8.566;2022-12-16T13:34:58;67.28;;;35.88;;
39242;SDS011;29823;47.404;8.566;2022-12-16T13:37:50;65.97;;;35.13;;
39242;SDS011;29823;47.404;8.566;2022-12-16T13:40:49;67.35;;;35.15;;
39242;SDS011;29823;47.404;8.566;2022-12-16T13:43:45;68.22;;;34.22;;
39242;SDS011;29823;47.404;8.566;2022-12-16T13:46:39;65.25;;;35.13;;
39242;SDS011;29823;47.404;8.566;2022-12-16T13:49:45;66.55;;;34.78;;
39242;SDS011;29823;47.404;8.566;2022-12-16T13:52:36;66.68;;;35.50;;
39242;SDS011;29823;47.404;8.566;2022-12-16T13:55:27;68.05;;;35.78;;
39242;SDS011;29823;47.404;8.566;2022-12-16T13:58:20;61.58;;;34.28;;
39242;SDS011;29823;47.404;8.566;2022-12-16T14:01:15;71.75;;;36.10;;
39242;SDS011;29823;47.404;8.566;2022-12-16T14:04:07;62.78;;;35.30;;
39242;SDS011;29823;47.404;8.566;2022-12-16T14:06:58;68.88;;;36.25;;
39242;SDS011;29823;47.404;8.566;2022-12-16T14:09:51;64.68;;;35.38;;
39242;SDS011;29823;47.404;8.566;2022-12-16T14:12:44;69.97;;;36.08;;
39242;SDS011;29823;47.404;8.566;2022-12-16T14:15:40;66.60;;;35.03;;
39242;SDS011;29823;47.404;8.566;2022-12-16T14:18:37;66.38;;;36.00;;
39242;SDS011;29823;47.404;8.566;2022-12-16T14:21:30;69.75;;;35.17;;
39242;SDS011;29823;47.404;8.566;2022-12-16T14:24:21;76.63;;;36.08;;
39242;SDS011;29823;47.404;8.566;2022-12-16T14:27:12;68.35;;;35.50;;
39242;SDS011;29823;47.404;8.566;2022-12-16T14:30:00;70.88;;;36.83;;
39242;SDS011;29823;47.404;8.566;2022-12-16T14:32:47;67.28;;;35.55;;
39242;SDS011;29823;47.404;8.566;2022-12-16T14:35:32;70.00;;;37.03;;
39242;SDS011;29823;47.404;8.566;2022-12-16T14:38:22;72.15;;;35.83;;
39242;SDS011;29823;47.404;8.566;2022-12-16T14:41:09;72.32;;;36.45;;
39242;SDS011;29823;47.404;8.566;2022-12-16T14:43:59;73.57;;;35.60;;
39242;SDS011;29823;47.404;8.566;2022-12-16T14:46:49;76.30;;;37.50;;
39242;SDS011;29823;47.404;8.566;2022-12-16T14:49:35;73.20;;;37.03;;
39242;SDS011;29823;47.404;8.566;2022-12-16T14:52:32;70.40;;;34.70;;
39242;SDS011;29823;47.404;8.566;2022-12-16T14:55:18;74.07;;;36.50;;
39242;SDS011;29823;47.404;8.566;2022-12-16T14:58:09;71.45;;;36.60;;
39242;SDS011;29823;47.404;8.566;2022-12-16T15:00:58;72.30;;;35.35;;
39242;SDS011;29823;47.404;8.566;2022-12-16T15:03:59;73.88;;;35.97;;
39242;SDS011;29823;47.404;8.566;2022-12-16T15:06:48;84.38;;;38.65;;
39242;SDS011;29823;47.404;8.566;2022-12-16T15:09:36;75.35;;;38.13;;
39242;SDS011;29823;47.404;8.566;2022-12-16T15:12:26;73.20;;;37.72;;
39242;SDS011;29823;47.404;8.566;2022-12-16T15:15:17;72.47;;;37.40;;
39242;SDS011;29823;47.404;8.566;2022-12-16T15:18:14;73.65;;;36.50;;
39242;SDS011;29823;47.404;8.566;2022-12-16T15:21:02;69.00;;;34.33;;
39242;SDS011;29823;47.404;8.566;2022-12-16T15:23:47;72.85;;;35.33;;
39242;SDS011;29823;47.404;8.566;2022-12-16T15:26:33;73.93;;;34.63;;
39242;SDS011;29823;47.404;8.566;2022-12-16T15:29:25;72.93;;;35.60;;
39242;SDS011;29823;47.404;8.566;2022-12-16T15:32:21;72.30;;;36.17;;
39242;SDS011;29823;47.404;8.566;2022-12-16T15:35:23;71.50;;;36.58;;
39242;SDS011;29823;47.404;8.566;2022-12-16T15:38:11;69.60;;;34.28;;
39242;SDS011;29823;47.404;8.566;2022-12-16T15:41:01;71.80;;;35.75;;
39242;SDS011;29823;47.404;8.566;2022-12-16T15:43:48;75.55;;;35.88;;
39242;SDS011;29823;47.404;8.566;2022-12-16T15:46:35;76.68;;;37.55;;
39242;SDS011;29823;47.404;8.566;2022-12-16T15:49:21;71.32;;;34.95;;
39242;SDS011;29823;47.404;8.566;2022-12-16T15:52:27;84.88;;;39.67;;
39242;SDS011;29823;47.404;8.566;2022-12-16T15:55:26;78.55;;;39.78;;
39242;SDS011;29823;47.404;8.566;2022-12-16T15:58:20;73.88;;;36.03;;
39242;SDS011;29823;47.404;8.566;2022-12-16T16:01:10;69.13;;;34.75;;
39242;SDS011;29823;47.404;8.566;2022-12-16T16:03:57;74.35;;;35.78;;
39242;SDS011;29823;47.404;8.566;2022-12-16T16:06:44;69.28;;;34.92;;
39242;SDS011;29823;47.404;8.566;2022-12-16T16:09:35;61.72;;;32.70;;
39242;SDS011;29823;47.404;8.566;2022-12-16T16:12:22;65.28;;;32.35;;
39242;SDS011;29823;47.404;8.566;2022-12-16T16:15:10;64.07;;;30.55;;